Time;durP1;ratioP1;P1;durP2;ratioP2;P2;SDS_P1;SDS_P2;PMS_P1;PMS_P2;Temp;Humidity;BMP_temperature;BMP_pressure;BME280_temperature;BME280_humidity;BME280_pressure;Samples;Min_cycle;Max_cycle;Signal;HPM_P1;HPM_P2
2022/11/13 00:00:02;;;;;;;;;;;19.80;66.00;;;;;;5075723;28;19925;-57
2022/11/13 00:02:27;;;;;;;;;;;19.70;66.00;;;;;;5075485;28;19983;-58
2022/11/13 00:04:53;;;;;;;;;;;19.70;66.00;;;;;;5074417;28;19947;-58
2022/11/13 00:07:18;;;;;;;;;;;19.70;65.90;;;;;;5075124;28;20432;-57
2022/11/13 00:09:44;;;;;;;;;;;19.70;65.90;;;;;;5075100;28;19932;-58
2022/11/13 00:12:09;;;;;;;;;;;19.70;66.00;;;;;;5074314;28;19957;-58
2022/11/13 00:14:35;;;;;;;;;;;19.70;66.00;;;;;;5075458;28;19924;-58
2022/11/13 00:17:00;;;;;;;;;;;19.70;65.90;;;;;;5075168;28;20007;-58
2022/11/13 00:19:26;;;;;;;;;;;19.70;65.90;;;;;;5074445;28;19925;-57
2022/11/13 00:21:51;;;;;;;;;;;19.70;66.00;;;;;;5074969;28;20283;-58
2022/11/13 00:24:16;;;;;;;;;;;19.70;65.90;;;;;;5074613;28;19928;-58
2022/11/13 00:26:42;;;;;;;;;;;19.60;65.90;;;;;;5073533;28;20284;-58
2022/11/13 00:29:08;;;;;;;;;;;19.60;65.90;;;;;;5075090;28;19970;-58
2022/11/13 00:31:33;;;;;;;;;;;19.60;65.90;;;;;;5075067;28;19925;-58
2022/11/13 00:33:59;;;;;;;;;;;19.70;65.90;;;;;;5074089;28;20451;-58
2022/11/13 00:36:25;;;;;;;;;;;19.60;65.90;;;;;;5074673;28;20027;-58
2022/11/13 00:38:50;;;;;;;;;;;19.60;65.90;;;;;;5073877;28;19979;-58
2022/11/13 00:41:16;;;;;;;;;;;19.60;65.80;;;;;;5074644;28;19932;-58
2022/11/13 00:43:41;;;;;;;;;;;19.60;65.90;;;;;;5074845;28;19925;-58
2022/11/13 00:46:07;;;;;;;;;;;19.60;65.80;;;;;;5074188;28;19928;-58
2022/11/13 00:48:33;;;;;;;;;;;19.60;65.80;;;;;;5074550;28;19932;-58
2022/11/13 00:50:58;;;;;;;;;;;19.50;65.80;;;;;;5074401;28;19925;-58
2022/11/13 00:53:24;;;;;;;;;;;19.50;65.70;;;;;;5073455;28;19925;-58
2022/11/13 00:55:49;;;;;;;;;;;19.50;65.70;;;;;;5074311;28;20347;-58
2022/11/13 00:58:15;;;;;;;;;;;19.50;65.60;;;;;;5074386;28;19925;-58
2022/11/13 01:00:40;;;;;;;;;;;19.50;65.60;;;;;;5073663;28;19931;-58
2022/11/13 01:03:06;;;;;;;;;;;19.50;65.60;;;;;;5074323;28;20402;-58
2022/11/13 01:05:38;;;;;;;;;;;19.50;65.60;;;;;;5074062;28;19977;-58
2022/11/13 01:08:04;;;;;;;;;;;19.50;65.60;;;;;;5073608;28;19925;-58
2022/11/13 01:10:29;;;;;;;;;;;19.50;65.60;;;;;;5074174;28;19921;-58
2022/11/13 01:12:55;;;;;;;;;;;19.50;65.60;;;;;;5074182;28;19925;-58
2022/11/13 01:15:20;;;;;;;;;;;19.50;65.60;;;;;;5073293;28;19925;-58
2022/11/13 01:17:46;;;;;;;;;;;19.50;65.50;;;;;;5074051;28;19921;-58
2022/11/13 01:20:11;;;;;;;;;;;19.40;65.50;;;;;;5073630;28;19938;-58
2022/11/13 01:22:37;;;;;;;;;;;19.40;65.50;;;;;;5072868;28;20399;-58
2022/11/13 01:25:02;;;;;;;;;;;19.50;65.50;;;;;;5073565;28;19960;-58
2022/11/13 01:27:28;;;;;;;;;;;19.40;65.40;;;;;;5073818;28;20167;-58
2022/11/13 01:29:53;;;;;;;;;;;19.40;65.40;;;;;;5072955;28;19955;-58
2022/11/13 01:32:19;;;;;;;;;;;19.40;65.50;;;;;;5073739;28;19982;-58
2022/11/13 01:34:44;;;;;;;;;;;19.40;65.40;;;;;;5074012;28;19928;-58
2022/11/13 01:37:10;;;;;;;;;;;19.40;65.40;;;;;;5072386;28;20391;-58
2022/11/13 01:39:35;;;;;;;;;;;19.40;65.50;;;;;;5073603;28;19928;-58
2022/11/13 01:42:01;;;;;;;;;;;19.40;65.40;;;;;;5073053;28;19931;-58
2022/11/13 01:44:29;;;;;;;;;;;19.40;65.30;;;;;;5073500;28;19924;-57
2022/11/13 01:46:55;;;;;;;;;;;19.40;65.50;;;;;;5071079;28;20442;-58
2022/11/13 01:49:23;;;;;;;;;;;19.40;65.30;;;;;;5052611;28;20039;-58
2022/11/13 01:51:49;;;;;;;;;;;19.40;65.30;;;;;;5053394;28;19924;-58
2022/11/13 01:54:15;;;;;;;;;;;19.40;65.30;;;;;;5053099;28;19931;-58
2022/11/13 01:56:40;;;;;;;;;;;19.40;65.30;;;;;;5052440;28;20287;-57
2022/11/13 01:59:13;;;;;;;;;;;19.40;65.30;;;;;;5053334;28;20364;-58
2022/11/13 02:01:38;;;;;;;;;;;19.40;65.30;;;;;;5053526;28;19978;-58
2022/11/13 02:04:04;;;;;;;;;;;19.30;65.10;;;;;;5052632;28;20005;-58
2022/11/13 02:06:31;;;;;;;;;;;19.30;65.20;;;;;;5052693;28;19932;-58
2022/11/13 02:08:57;;;;;;;;;;;19.30;65.20;;;;;;5068731;28;19924;-58
2022/11/13 02:11:22;;;;;;;;;;;19.30;65.10;;;;;;5067378;28;19925;-58
2022/11/13 02:13:48;;;;;;;;;;;19.30;65.20;;;;;;5053060;28;20307;-58
2022/11/13 02:16:13;;;;;;;;;;;19.30;65.10;;;;;;5068161;28;19925;-58
2022/11/13 02:18:38;;;;;;;;;;;19.30;65.10;;;;;;5052212;28;19925;-58
2022/11/13 02:21:10;;;;;;;;;;;19.30;65.20;;;;;;5052440;28;19928;-58
2022/11/13 02:23:43;;;;;;;;;;;19.30;65.10;;;;;;5068443;28;19932;-58
2022/11/13 02:26:08;;;;;;;;;;;19.30;65.10;;;;;;5067451;28;19931;-58
2022/11/13 02:28:34;;;;;;;;;;;19.30;65.10;;;;;;5068404;28;20300;-58
2022/11/13 02:31:06;;;;;;;;;;;19.20;65.00;;;;;;5052727;28;19925;-58
2022/11/13 02:33:32;;;;;;;;;;;19.20;65.00;;;;;;5051935;28;19925;-58
2022/11/13 02:35:57;;;;;;;;;;;19.30;65.00;;;;;;5052744;28;19936;-58
2022/11/13 02:38:23;;;;;;;;;;;19.30;65.00;;;;;;5067137;28;20352;-58
2022/11/13 02:40:48;;;;;;;;;;;19.20;64.90;;;;;;5052625;28;19931;-58
2022/11/13 02:43:14;;;;;;;;;;;19.20;64.90;;;;;;5052109;28;19978;-58
2022/11/13 02:45:39;;;;;;;;;;;19.20;64.90;;;;;;5052052;28;19924;-58
2022/11/13 02:48:05;;;;;;;;;;;19.20;64.90;;;;;;5052772;28;19925;-58
2022/11/13 02:50:30;;;;;;;;;;;19.20;64.90;;;;;;5051747;28;20007;-58
2022/11/13 02:52:56;;;;;;;;;;;19.20;64.90;;;;;;5051843;28;19932;-58
2022/11/13 02:55:22;;;;;;;;;;;19.20;64.90;;;;;;5052060;28;20353;-58
2022/11/13 02:57:47;;;;;;;;;;;19.20;64.80;;;;;;5052450;28;20027;-58
2022/11/13 03:00:13;;;;;;;;;;;19.20;64.90;;;;;;5051106;28;19964;-58
2022/11/13 03:02:39;;;;;;;;;;;19.20;64.80;;;;;;5052591;28;19947;-58
2022/11/13 03:05:04;;;;;;;;;;;19.20;64.80;;;;;;5052141;28;19924;-58
2022/11/13 03:07:30;;;;;;;;;;;19.20;64.80;;;;;;5051304;28;20380;-58
2022/11/13 03:09:56;;;;;;;;;;;19.20;64.80;;;;;;5034766;28;19972;-58
2022/11/13 03:12:21;;;;;;;;;;;19.10;64.70;;;;;;5052167;28;19929;-58
2022/11/13 03:14:47;;;;;;;;;;;19.10;64.80;;;;;;5051256;28;19928;-58
2022/11/13 03:17:12;;;;;;;;;;;19.10;64.70;;;;;;5051930;28;19991;-58
2022/11/13 03:19:38;;;;;;;;;;;19.10;64.70;;;;;;5052389;28;20019;-58
2022/11/13 03:22:03;;;;;;;;;;;19.10;64.70;;;;;;5051389;28;20268;-58
2022/11/13 03:24:29;;;;;;;;;;;19.10;64.70;;;;;;5051693;28;19931;-58
2022/11/13 03:26:54;;;;;;;;;;;19.10;64.60;;;;;;5052010;28;19998;-58
2022/11/13 03:29:19;;;;;;;;;;;19.10;64.70;;;;;;5051465;28;20023;-58
2022/11/13 03:31:45;;;;;;;;;;;19.10;64.60;;;;;;5051931;28;20376;-59
2022/11/13 03:34:10;;;;;;;;;;;19.10;64.70;;;;;;5051858;28;19939;-59
2022/11/13 03:36:36;;;;;;;;;;;19.10;64.60;;;;;;5051609;28;19925;-59
2022/11/13 03:39:02;;;;;;;;;;;19.10;64.80;;;;;;5052196;28;19925;-59
2022/11/13 03:41:27;;;;;;;;;;;19.10;64.80;;;;;;5051875;28;19929;-59
2022/11/13 03:43:52;;;;;;;;;;;19.10;64.80;;;;;;5051267;28;20019;-59
2022/11/13 03:46:18;;;;;;;;;;;19.10;64.90;;;;;;5051554;28;20287;-58
2022/11/13 03:48:43;;;;;;;;;;;19.10;64.90;;;;;;5051270;28;20019;-59
2022/11/13 03:51:09;;;;;;;;;;;19.10;64.90;;;;;;5051563;28;19924;-59
2022/11/13 03:53:34;;;;;;;;;;;19.10;64.90;;;;;;5052108;28;19924;-59
2022/11/13 03:56:00;;;;;;;;;;;19.10;64.90;;;;;;5051508;28;19929;-59
2022/11/13 03:58:25;;;;;;;;;;;19.10;65.00;;;;;;5052015;28;19924;-59
2022/11/13 04:00:52;;;;;;;;;;;19.10;64.90;;;;;;5051842;28;19970;-58
2022/11/13 04:03:17;;;;;;;;;;;19.10;64.90;;;;;;5054645;28;19925;-59
2022/11/13 04:05:43;;;;;;;;;;;19.10;64.90;;;;;;5055474;28;19932;-59
2022/11/13 04:08:08;;;;;;;;;;;19.10;64.90;;;;;;5055520;28;19975;-59
2022/11/13 04:10:34;;;;;;;;;;;19.10;64.90;;;;;;5054680;28;20354;-59
2022/11/13 04:13:00;;;;;;;;;;;19.10;64.80;;;;;;5055374;28;19932;-59
2022/11/13 04:15:25;;;;;;;;;;;19.10;64.80;;;;;;5055013;28;20031;-59
2022/11/13 04:17:51;;;;;;;;;;;19.10;64.90;;;;;;5054482;28;20348;-59
2022/11/13 04:20:16;;;;;;;;;;;19.10;64.70;;;;;;5055146;28;19932;-59
2022/11/13 04:22:41;;;;;;;;;;;19.10;64.70;;;;;;5055196;28;19925;-59
2022/11/13 04:25:07;;;;;;;;;;;19.20;64.70;;;;;;5054083;28;19929;-59
2022/11/13 04:27:33;;;;;;;;;;;19.20;64.70;;;;;;5054661;28;19970;-59
2022/11/13 04:29:59;;;;;;;;;;;19.20;64.70;;;;;;5054915;28;19978;-59
2022/11/13 04:32:24;;;;;;;;;;;19.20;64.60;;;;;;5053852;28;20015;-59
2022/11/13 04:34:49;;;;;;;;;;;19.20;65.30;;;;;;5055179;28;19924;-59
2022/11/13 04:37:15;;;;;;;;;;;19.20;64.70;;;;;;5054270;28;19924;-59
2022/11/13 04:39:40;;;;;;;;;;;19.20;64.60;;;;;;5053983;28;19924;-59
2022/11/13 04:44:51;;;;;;;;;;;19.30;64.60;;;;;;5054314;28;19979;-59
2022/11/13 04:47:17;;;;;;;;;;;19.30;64.60;;;;;;5054463;28;19968;-58
2022/11/13 04:49:42;;;;;;;;;;;19.30;64.60;;;;;;5054375;28;20360;-59
2022/11/13 04:52:08;;;;;;;;;;;19.30;64.50;;;;;;5053980;28;20011;-59
2022/11/13 04:54:33;;;;;;;;;;;19.40;64.60;;;;;;5054243;28;19982;-59
2022/11/13 04:56:58;;;;;;;;;;;19.40;64.50;;;;;;5054679;28;19925;-59
2022/11/13 04:59:24;;;;;;;;;;;19.40;64.50;;;;;;5053416;28;19925;-59
2022/11/13 05:01:49;;;;;;;;;;;19.40;64.50;;;;;;5054258;28;19932;-59
2022/11/13 05:04:15;;;;;;;;;;;19.40;64.50;;;;;;5053206;28;19921;-59
2022/11/13 05:06:41;;;;;;;;;;;19.40;64.40;;;;;;5052495;28;19925;-59
2022/11/13 05:09:06;;;;;;;;;;;19.40;64.40;;;;;;5053957;28;20505;-59
2022/11/13 05:11:31;;;;;;;;;;;19.50;64.50;;;;;;5054134;28;20380;-59
2022/11/13 05:13:57;;;;;;;;;;;19.50;64.40;;;;;;5052935;28;19929;-59
2022/11/13 05:16:22;;;;;;;;;;;19.50;64.40;;;;;;5053663;28;19925;-60
2022/11/13 05:18:48;;;;;;;;;;;19.50;64.40;;;;;;5054154;28;20360;-59
2022/11/13 05:21:13;;;;;;;;;;;19.50;64.40;;;;;;5052630;28;19935;-58
2022/11/13 05:23:39;;;;;;;;;;;19.50;64.40;;;;;;5054052;28;19925;-58
2022/11/13 05:26:05;;;;;;;;;;;19.60;64.40;;;;;;5053957;28;19929;-59
2022/11/13 05:28:31;;;;;;;;;;;19.60;64.40;;;;;;5053010;28;20422;-59
2022/11/13 05:31:06;;;;;;;;;;;19.60;64.30;;;;;;5054001;28;19921;-59
2022/11/13 05:33:32;;;;;;;;;;;19.60;64.30;;;;;;5053601;28;19925;-59
2022/11/13 05:36:04;;;;;;;;;;;19.60;64.30;;;;;;5052831;28;20391;-59
2022/11/13 05:38:29;;;;;;;;;;;19.60;64.30;;;;;;5053697;28;20036;-58
2022/11/13 05:40:59;;;;;;;;;;;19.60;64.20;;;;;;5053443;28;20399;-59
2022/11/13 05:43:25;;;;;;;;;;;19.60;64.20;;;;;;5052849;28;19925;-59
2022/11/13 05:45:50;;;;;;;;;;;19.60;64.10;;;;;;5053751;28;19924;-58
2022/11/13 05:48:16;;;;;;;;;;;19.60;64.20;;;;;;5052475;28;19985;-58
2022/11/13 05:50:41;;;;;;;;;;;19.60;64.20;;;;;;5053453;28;19925;-58
2022/11/13 05:53:07;;;;;;;;;;;19.70;64.20;;;;;;5053455;28;19953;-58
2022/11/13 05:55:32;;;;;;;;;;;19.70;64.20;;;;;;5052153;28;19929;-58
2022/11/13 05:57:58;;;;;;;;;;;19.70;64.10;;;;;;5053825;28;19928;-59
2022/11/13 06:00:23;;;;;;;;;;;19.70;64.10;;;;;;5053221;28;19925;-58
2022/11/13 06:02:49;;;;;;;;;;;19.70;64.10;;;;;;5052437;28;20368;-58
2022/11/13 06:05:14;;;;;;;;;;;19.70;64.10;;;;;;5052807;28;19929;-58
2022/11/13 06:07:39;;;;;;;;;;;19.70;64.10;;;;;;5053237;28;20015;-58
2022/11/13 06:10:05;;;;;;;;;;;19.70;64.00;;;;;;5052111;28;19924;-59
2022/11/13 06:12:31;;;;;;;;;;;19.70;64.00;;;;;;5053101;28;20019;-59
2022/11/13 06:14:56;;;;;;;;;;;19.70;64.00;;;;;;5053190;28;19929;-58
2022/11/13 06:17:22;;;;;;;;;;;19.70;64.00;;;;;;5052130;28;20261;-58
2022/11/13 06:19:47;;;;;;;;;;;19.80;64.10;;;;;;5052949;28;19924;-59
2022/11/13 06:22:12;;;;;;;;;;;19.80;64.10;;;;;;5052228;28;19932;-59
2022/11/13 06:24:38;;;;;;;;;;;19.80;64.00;;;;;;5051060;28;20407;-59
2022/11/13 06:27:03;;;;;;;;;;;19.80;63.90;;;;;;5053005;28;20012;-59
2022/11/13 06:29:29;;;;;;;;;;;19.80;63.90;;;;;;5052837;28;19925;-59
2022/11/13 06:31:54;;;;;;;;;;;19.80;63.90;;;;;;5052250;28;20261;-59
2022/11/13 06:34:20;;;;;;;;;;;19.80;63.90;;;;;;5052367;28;19924;-59
2022/11/13 06:36:45;;;;;;;;;;;19.80;63.90;;;;;;5052835;28;19925;-59
2022/11/13 06:39:11;;;;;;;;;;;19.80;63.80;;;;;;5051475;28;19932;-59
2022/11/13 06:41:36;;;;;;;;;;;19.80;63.90;;;;;;5052875;28;19971;-59
2022/11/13 06:44:02;;;;;;;;;;;19.80;63.80;;;;;;5052887;28;20353;-58
2022/11/13 06:46:28;;;;;;;;;;;19.80;63.80;;;;;;5051843;28;19924;-59
2022/11/13 06:48:53;;;;;;;;;;;19.80;63.80;;;;;;5052613;28;20005;-58
2022/11/13 06:51:19;;;;;;;;;;;19.80;63.80;;;;;;5052102;28;19925;-58
2022/11/13 06:53:45;;;;;;;;;;;19.80;63.80;;;;;;5051807;28;19925;-58
2022/11/13 06:56:10;;;;;;;;;;;19.80;63.80;;;;;;5052421;28;19925;-59
2022/11/13 06:58:36;;;;;;;;;;;19.80;63.80;;;;;;5051773;28;19987;-59
2022/11/13 07:01:11;;;;;;;;;;;19.80;63.80;;;;;;5052495;28;19931;-58
2022/11/13 07:03:37;;;;;;;;;;;19.80;63.70;;;;;;5052231;28;19925;-58
2022/11/13 07:06:02;;;;;;;;;;;19.80;63.70;;;;;;5051142;28;19936;-58
2022/11/13 07:08:28;;;;;;;;;;;19.80;63.70;;;;;;5067769;28;19939;-58
2022/11/13 07:10:54;;;;;;;;;;;19.80;63.70;;;;;;5052351;28;19925;-58
2022/11/13 07:13:20;;;;;;;;;;;19.80;63.80;;;;;;5051500;28;19924;-58
2022/11/13 07:15:45;;;;;;;;;;;19.90;63.70;;;;;;5034515;28;20395;-58
2022/11/13 07:18:11;;;;;;;;;;;19.90;63.70;;;;;;5052273;28;19920;-58
2022/11/13 07:20:36;;;;;;;;;;;19.90;63.80;;;;;;5033984;28;19932;-58
2022/11/13 07:23:02;;;;;;;;;;;19.90;63.70;;;;;;5052016;28;20326;-58
2022/11/13 07:25:27;;;;;;;;;;;19.90;63.70;;;;;;5051833;28;19925;-58
2022/11/13 07:27:53;;;;;;;;;;;19.80;63.60;;;;;;5051652;28;20354;-58
2022/11/13 07:30:18;;;;;;;;;;;19.90;63.70;;;;;;5051983;28;20344;-58
2022/11/13 07:32:44;;;;;;;;;;;19.90;63.70;;;;;;5052428;28;19924;-58
2022/11/13 07:35:09;;;;;;;;;;;19.90;63.60;;;;;;5051587;28;19925;-59
2022/11/13 07:37:35;;;;;;;;;;;19.90;63.60;;;;;;5055679;28;20299;-58
2022/11/13 07:40:00;;;;;;;;;;;19.90;63.60;;;;;;5055852;28;19931;-58
2022/11/13 07:42:26;;;;;;;;;;;19.90;63.60;;;;;;5054977;28;19925;-58
2022/11/13 07:44:51;;;;;;;;;;;19.90;63.60;;;;;;5055788;28;19959;-58
2022/11/13 07:47:17;;;;;;;;;;;19.90;63.60;;;;;;5055394;28;19964;-58
2022/11/13 07:49:42;;;;;;;;;;;19.90;63.60;;;;;;5054867;28;19925;-58
2022/11/13 07:52:08;;;;;;;;;;;19.90;63.60;;;;;;5055745;28;20066;-59
2022/11/13 07:54:33;;;;;;;;;;;19.90;63.60;;;;;;5055345;28;19925;-58
2022/11/13 07:56:58;;;;;;;;;;;19.90;63.60;;;;;;5055090;28;19928;-58
2022/11/13 07:59:24;;;;;;;;;;;19.90;63.60;;;;;;5055662;28;19924;-59
2022/11/13 08:01:49;;;;;;;;;;;19.90;63.50;;;;;;5055057;28;19925;-59
2022/11/13 08:04:15;;;;;;;;;;;19.90;63.50;;;;;;5055345;28;20304;-59
2022/11/13 08:06:40;;;;;;;;;;;19.90;63.30;;;;;;5055391;28;20356;-58
2022/11/13 08:09:06;;;;;;;;;;;19.90;63.40;;;;;;5054724;28;19932;-58
2022/11/13 08:11:31;;;;;;;;;;;19.90;63.40;;;;;;5055376;28;19925;-58
2022/11/13 08:13:57;;;;;;;;;;;19.90;63.40;;;;;;5055627;28;19931;-58
2022/11/13 08:16:22;;;;;;;;;;;19.90;63.40;;;;;;5054187;28;19947;-58
2022/11/13 08:18:48;;;;;;;;;;;19.90;63.50;;;;;;5055366;28;19928;-59
2022/11/13 08:21:14;;;;;;;;;;;19.90;63.50;;;;;;5054794;28;20459;-58
2022/11/13 08:23:40;;;;;;;;;;;19.90;63.60;;;;;;5054420;28;19975;-59
2022/11/13 08:26:05;;;;;;;;;;;19.90;63.60;;;;;;5054970;28;20368;-59
2022/11/13 08:28:31;;;;;;;;;;;20.00;63.70;;;;;;5054981;28;19925;-59
2022/11/13 08:30:56;;;;;;;;;;;19.90;63.80;;;;;;5054081;28;20023;-58
2022/11/13 08:33:22;;;;;;;;;;;20.00;64.00;;;;;;5059191;28;19986;-59
2022/11/13 08:35:50;;;;;;;;;;;20.00;64.00;;;;;;5063512;28;19947;-58
2022/11/13 08:38:16;;;;;;;;;;;20.00;64.10;;;;;;5063930;28;19972;-58
2022/11/13 08:40:41;;;;;;;;;;;20.00;64.20;;;;;;5054727;28;19967;-58
2022/11/13 08:43:07;;;;;;;;;;;20.10;64.30;;;;;;5054721;28;20422;-60
2022/11/13 08:45:32;;;;;;;;;;;20.10;64.40;;;;;;5053468;28;19932;-60
2022/11/13 08:48:01;;;;;;;;;;;20.10;64.40;;;;;;5053987;28;19950;-59
2022/11/13 08:50:27;;;;;;;;;;;20.20;64.50;;;;;;5054303;28;19968;-58
2022/11/13 08:52:56;;;;;;;;;;;20.20;64.40;;;;;;5053158;28;19960;-58
2022/11/13 08:55:21;;;;;;;;;;;20.20;64.40;;;;;;5051553;28;19929;-58
2022/11/13 08:57:47;;;;;;;;;;;20.20;64.40;;;;;;5054124;28;20448;-58
2022/11/13 09:00:13;;;;;;;;;;;20.30;64.40;;;;;;5053064;28;19931;-58
2022/11/13 09:02:38;;;;;;;;;;;20.30;64.40;;;;;;5054018;28;19928;-58
2022/11/13 09:05:04;;;;;;;;;;;20.30;64.40;;;;;;5053700;28;19977;-58
2022/11/13 09:07:29;;;;;;;;;;;20.30;64.50;;;;;;5053590;28;19925;-59
2022/11/13 09:09:55;;;;;;;;;;;20.30;64.40;;;;;;5054184;28;19932;-58
2022/11/13 09:12:20;;;;;;;;;;;20.30;64.30;;;;;;5052696;28;19960;-59
2022/11/13 09:14:45;;;;;;;;;;;20.40;64.30;;;;;;5054103;28;19929;-59
2022/11/13 09:17:11;;;;;;;;;;;20.40;64.20;;;;;;5053814;28;19925;-58
2022/11/13 09:19:36;;;;;;;;;;;20.40;64.20;;;;;;5053199;28;19928;-60
2022/11/13 09:22:02;;;;;;;;;;;20.40;64.80;;;;;;5053626;28;19924;-59
2022/11/13 09:24:27;;;;;;;;;;;20.40;64.10;;;;;;5053423;28;19924;-59
2022/11/13 09:26:53;;;;;;;;;;;20.40;64.20;;;;;;5053292;28;19968;-59
2022/11/13 09:29:19;;;;;;;;;;;20.40;64.20;;;;;;5053328;28;19929;-59
2022/11/13 09:31:45;;;;;;;;;;;20.40;64.20;;;;;;5054095;28;19982;-58
2022/11/13 09:34:10;;;;;;;;;;;20.40;64.20;;;;;;5052655;28;20342;-59
2022/11/13 09:36:36;;;;;;;;;;;20.40;64.20;;;;;;5053439;28;19931;-59
2022/11/13 09:39:02;;;;;;;;;;;20.40;64.10;;;;;;5053415;28;19921;-59
2022/11/13 09:41:32;;;;;;;;;;;20.40;64.20;;;;;;5052292;28;20442;-58
2022/11/13 09:43:59;;;;;;;;;;;20.40;64.20;;;;;;5069029;28;19921;-59
2022/11/13 09:46:37;;;;;;;;;;;20.40;64.30;;;;;;5068345;28;20292;-59
2022/11/13 09:49:04;;;;;;;;;;;20.40;64.30;;;;;;5067902;28;19925;-59
2022/11/13 09:51:31;;;;;;;;;;;20.40;64.30;;;;;;5068454;28;19993;-60
2022/11/13 09:53:57;;;;;;;;;;;20.40;64.30;;;;;;5053389;28;19932;-58
2022/11/13 09:56:41;;;;;;;;;;;20.40;64.40;;;;;;5051970;28;19920;-59
2022/11/13 09:59:25;;;;;;;;;;;20.30;64.40;;;;;;5052818;28;20020;-59
2022/11/13 10:01:53;;;;;;;;;;;20.40;64.40;;;;;;5052473;28;19921;-59
2022/11/13 10:04:23;;;;;;;;;;;20.30;64.40;;;;;;5052826;28;20091;-59
2022/11/13 10:07:04;;;;;;;;;;;20.30;64.40;;;;;;5052605;28;19974;-58
2022/11/13 10:09:38;;;;;;;;;;;20.30;64.40;;;;;;5052140;28;20023;-59
2022/11/13 10:12:06;;;;;;;;;;;20.30;64.40;;;;;;5043382;28;20272;-58
2022/11/13 10:14:41;;;;;;;;;;;20.30;64.40;;;;;;5041116;28;19972;-58
2022/11/13 10:17:10;;;;;;;;;;;20.40;64.40;;;;;;5052586;28;19925;-58
2022/11/13 10:19:48;;;;;;;;;;;20.30;64.30;;;;;;5048934;28;19984;-58
2022/11/13 10:22:23;;;;;;;;;;;20.30;64.30;;;;;;5083415;28;19955;-59
2022/11/13 10:24:49;;;;;;;;;;;20.30;64.30;;;;;;5050101;28;19925;-58
2022/11/13 10:27:15;;;;;;;;;;;20.30;64.30;;;;;;5051108;28;19974;-58
2022/11/13 10:29:42;;;;;;;;;;;20.30;64.40;;;;;;5051206;28;20150;-58
2022/11/13 10:32:25;;;;;;;;;;;20.30;64.40;;;;;;5052870;28;20011;-58
2022/11/13 10:35:03;;;;;;;;;;;20.30;64.40;;;;;;5052396;28;20710;-58
2022/11/13 10:37:43;;;;;;;;;;;20.30;64.50;;;;;;5051474;28;19929;-59
2022/11/13 10:40:09;;;;;;;;;;;20.20;64.60;;;;;;5052418;28;19935;-58
2022/11/13 10:42:36;;;;;;;;;;;20.20;64.60;;;;;;5052486;28;20295;-58
2022/11/13 10:45:02;;;;;;;;;;;20.20;64.60;;;;;;5051718;28;19924;-58
2022/11/13 10:47:29;;;;;;;;;;;20.20;64.70;;;;;;5054086;28;19931;-59
2022/11/13 10:49:55;;;;;;;;;;;20.20;64.60;;;;;;5061709;28;19924;-60
2022/11/13 10:52:25;;;;;;;;;;;20.20;64.60;;;;;;5069221;28;19920;-59
2022/11/13 10:54:50;;;;;;;;;;;20.20;64.70;;;;;;5063722;28;19924;-60
2022/11/13 10:57:24;;;;;;;;;;;20.20;64.60;;;;;;5079004;28;20272;-59
2022/11/13 10:59:49;;;;;;;;;;;20.20;64.70;;;;;;5061388;28;20745;-59
2022/11/13 11:02:20;;;;;;;;;;;20.20;64.70;;;;;;5070979;28;19975;-58
2022/11/13 11:04:45;;;;;;;;;;;20.20;64.70;;;;;;5047507;28;19975;-59
2022/11/13 11:07:14;;;;;;;;;;;20.20;64.70;;;;;;5038160;28;19980;-59
2022/11/13 11:09:42;;;;;;;;;;;20.20;64.60;;;;;;5037868;28;19995;-59
2022/11/13 11:12:20;;;;;;;;;;;20.10;64.60;;;;;;5040240;28;19925;-60
2022/11/13 11:14:45;;;;;;;;;;;20.10;64.70;;;;;;5044057;28;19955;-59
2022/11/13 11:17:11;;;;;;;;;;;20.10;64.80;;;;;;5039184;28;20023;-60
2022/11/13 11:19:37;;;;;;;;;;;20.10;64.80;;;;;;5043502;28;19951;-60
2022/11/13 11:22:07;;;;;;;;;;;20.10;64.70;;;;;;5042639;28;19929;-62
2022/11/13 11:24:34;;;;;;;;;;;20.10;64.80;;;;;;5041817;28;19925;-60
2022/11/13 11:27:02;;;;;;;;;;;20.10;64.80;;;;;;5044432;28;20008;-59
2022/11/13 11:29:38;;;;;;;;;;;20.10;64.80;;;;;;5056567;28;19971;-60
2022/11/13 11:32:15;;;;;;;;;;;20.10;64.70;;;;;;5048707;28;20002;-59
2022/11/13 11:35:00;;;;;;;;;;;20.10;64.70;;;;;;5039304;28;20026;-59
2022/11/13 11:37:34;;;;;;;;;;;20.10;64.70;;;;;;5047635;28;20292;-59
2022/11/13 11:40:01;;;;;;;;;;;20.00;64.50;;;;;;5054935;28;20067;-60
2022/11/13 11:42:29;;;;;;;;;;;20.10;64.70;;;;;;5044952;28;20023;-60
2022/11/13 11:45:10;;;;;;;;;;;20.10;64.70;;;;;;5042596;28;20015;-60
2022/11/13 11:47:35;;;;;;;;;;;20.10;64.70;;;;;;5041250;28;19928;-59
2022/11/13 11:50:01;;;;;;;;;;;20.10;64.70;;;;;;5041740;28;20311;-59
2022/11/13 11:52:47;;;;;;;;;;;20.10;64.60;;;;;;5039737;28;19964;-59
2022/11/13 11:55:31;;;;;;;;;;;20.10;64.70;;;;;;5043155;28;19929;-60
2022/11/13 11:58:04;;;;;;;;;;;20.10;64.70;;;;;;5042996;28;19925;-59
2022/11/13 12:00:30;;;;;;;;;;;20.10;64.70;;;;;;5057163;28;20011;-59
2022/11/13 12:03:14;;;;;;;;;;;20.10;64.70;;;;;;5040783;28;20016;-59
2022/11/13 12:05:43;;;;;;;;;;;20.10;64.70;;;;;;5040321;28;19929;-59
2022/11/13 12:08:21;;;;;;;;;;;20.10;64.70;;;;;;5042358;28;20024;-60
2022/11/13 12:10:50;;;;;;;;;;;20.10;64.80;;;;;;5053733;28;19968;-59
2022/11/13 12:13:15;;;;;;;;;;;20.10;64.70;;;;;;5055048;28;19925;-59
2022/11/13 12:15:41;;;;;;;;;;;20.10;64.70;;;;;;5054588;28;20019;-59
2022/11/13 12:18:14;;;;;;;;;;;20.10;64.70;;;;;;5055539;28;20361;-59
2022/11/13 12:20:46;;;;;;;;;;;20.10;64.70;;;;;;5053695;28;19974;-59
2022/11/13 12:23:12;;;;;;;;;;;20.10;64.70;;;;;;5052524;28;20284;-59
2022/11/13 12:25:40;;;;;;;;;;;20.10;64.70;;;;;;5054669;28;19925;-59
2022/11/13 12:28:12;;;;;;;;;;;20.00;64.70;;;;;;5053369;28;19929;-59
2022/11/13 12:30:49;;;;;;;;;;;20.10;64.80;;;;;;5054471;28;19925;-59
2022/11/13 12:33:18;;;;;;;;;;;20.10;64.70;;;;;;5060881;28;19951;-59
2022/11/13 12:35:44;;;;;;;;;;;20.00;64.70;;;;;;5080247;28;19931;-60
2022/11/13 12:38:10;;;;;;;;;;;20.10;64.70;;;;;;5038815;28;19928;-59
2022/11/13 12:40:38;;;;;;;;;;;20.10;64.70;;;;;;5054712;28;19925;-60
2022/11/13 12:43:22;;;;;;;;;;;20.10;64.70;;;;;;5054701;28;19964;-59
2022/11/13 12:45:51;;;;;;;;;;;20.10;64.70;;;;;;5054591;28;19932;-59
2022/11/13 12:48:16;;;;;;;;;;;20.10;64.70;;;;;;5036225;28;20348;-59
2022/11/13 12:50:42;;;;;;;;;;;20.10;64.80;;;;;;5053860;28;20016;-59
2022/11/13 12:53:11;;;;;;;;;;;20.10;64.90;;;;;;5054664;28;19925;-59
2022/11/13 12:55:39;;;;;;;;;;;20.20;65.00;;;;;;5054787;28;19924;-59
2022/11/13 12:58:22;;;;;;;;;;;20.20;65.00;;;;;;5035840;28;20011;-59
2022/11/13 13:01:01;;;;;;;;;;;20.20;65.00;;;;;;5054649;28;20372;-59
2022/11/13 13:03:27;;;;;;;;;;;20.20;65.00;;;;;;5036047;28;20302;-59
2022/11/13 13:06:07;;;;;;;;;;;20.20;65.00;;;;;;5053436;28;20004;-59
2022/11/13 13:08:39;;;;;;;;;;;20.20;65.10;;;;;;5053693;28;20296;-60
2022/11/13 13:11:19;;;;;;;;;;;20.30;65.10;;;;;;5054024;28;20300;-59
2022/11/13 13:14:04;;;;;;;;;;;20.30;65.10;;;;;;5069464;28;20407;-59
2022/11/13 13:16:29;;;;;;;;;;;20.30;65.10;;;;;;5053743;28;20319;-60
2022/11/13 13:19:05;;;;;;;;;;;20.30;65.20;;;;;;5053463;28;19932;-59
2022/11/13 13:21:38;;;;;;;;;;;20.30;65.20;;;;;;5053594;28;19925;-59
2022/11/13 13:24:08;;;;;;;;;;;20.30;65.10;;;;;;5053544;28;20407;-59
2022/11/13 13:26:42;;;;;;;;;;;20.40;65.20;;;;;;5052750;28;20391;-60
2022/11/13 13:29:13;;;;;;;;;;;20.30;65.20;;;;;;5069383;28;19925;-59
2022/11/13 13:31:57;;;;;;;;;;;20.40;65.20;;;;;;5069167;28;19925;-60
2022/11/13 13:34:41;;;;;;;;;;;20.40;65.20;;;;;;5052598;28;19928;-60
2022/11/13 13:37:27;;;;;;;;;;;20.40;65.20;;;;;;5053695;28;20008;-60
2022/11/13 13:40:11;;;;;;;;;;;20.40;65.20;;;;;;5052371;28;19925;-59
2022/11/13 13:42:49;;;;;;;;;;;20.50;65.20;;;;;;5053774;28;19925;-60
2022/11/13 13:45:23;;;;;;;;;;;20.50;65.20;;;;;;5053264;28;20341;-60
2022/11/13 13:47:49;;;;;;;;;;;20.50;65.20;;;;;;5068282;28;19932;-60
2022/11/13 13:50:19;;;;;;;;;;;20.50;65.30;;;;;;5068598;28;19925;-60
2022/11/13 13:52:44;;;;;;;;;;;20.60;65.30;;;;;;5053526;28;19952;-60
2022/11/13 13:55:14;;;;;;;;;;;20.60;65.30;;;;;;5049402;28;20288;-60
2022/11/13 13:57:40;;;;;;;;;;;20.60;65.30;;;;;;5053220;28;19935;-61
2022/11/13 14:00:09;;;;;;;;;;;20.60;65.30;;;;;;5046724;28;19950;-60
2022/11/13 14:02:43;;;;;;;;;;;20.60;65.20;;;;;;5062732;28;20300;-60
2022/11/13 14:05:28;;;;;;;;;;;20.60;65.00;;;;;;5078043;28;19947;-60
2022/11/13 14:07:56;;;;;;;;;;;20.60;65.00;;;;;;5051904;28;19924;-60
2022/11/13 14:10:23;;;;;;;;;;;20.70;65.10;;;;;;5051028;28;19925;-60
2022/11/13 14:12:48;;;;;;;;;;;20.70;65.00;;;;;;5053508;28;19920;-59
2022/11/13 14:15:17;;;;;;;;;;;20.70;65.00;;;;;;5061431;28;19925;-60
2022/11/13 14:17:42;;;;;;;;;;;20.70;65.00;;;;;;5045923;28;19924;-60
2022/11/13 14:20:10;;;;;;;;;;;20.70;65.00;;;;;;5062452;28;20559;-60